Terminal Aerodrome Forecast
Issued by NWS Twin Cities, MN

Home | Current Version | Previous Version | Graphics & Text | Print | Product List | Glossary On
Versions: 1 2 3 4 5 6 7 8 9 10 11 12 13 14
000
FTUS43 KMPX 270520
TAFEAU
TAF
KEAU 270520Z 2706/2806 11004KT P6SM FEW250
     FM270800 11003KT 5SM BR FEW007
     FM271000 VRB02KT 1/2SM FG VV003
     FM271300 14008KT P6SM SCT050=

USA.gov is the U.S. government's official web portal to all federal, state and local government web resources and services.